sensor_id;sensor_type;location;lat;lon;timestamp;pressure;altitude;pressure_sealevel;temperature;humidity
80678;BME280;70042;52.494;5.502;2023-08-30T00:00:54;100978.81;;;21.70;64.59
80678;BME280;70042;52.494;5.502;2023-08-30T00:03:19;100971.75;;;21.69;64.42
80678;BME280;70042;52.494;5.502;2023-08-30T00:05:45;100969.09;;;21.69;64.52
80678;BME280;70042;52.494;5.502;2023-08-30T00:08:10;100957.66;;;21.67;64.39
80678;BME280;70042;52.494;5.502;2023-08-30T00:10:36;100958.69;;;21.63;64.47
80678;BME280;70042;52.494;5.502;2023-08-30T00:13:03;100956.84;;;21.65;64.50
80678;BME280;70042;52.494;5.502;2023-08-30T00:15:29;100952.38;;;21.66;64.36
80678;BME280;70042;52.494;5.502;2023-08-30T00:17:54;100944.38;;;21.67;64.36
80678;BME280;70042;52.494;5.502;2023-08-30T00:20:20;100947.94;;;21.66;64.37
80678;BME280;70042;52.494;5.502;2023-08-30T00:22:47;100947.81;;;21.69;64.36
80678;BME280;70042;52.494;5.502;2023-08-30T00:25:14;100941.63;;;21.69;64.47
80678;BME280;70042;52.494;5.502;2023-08-30T00:27:39;100946.19;;;21.65;64.45
80678;BME280;70042;52.494;5.502;2023-08-30T00:30:05;100948.06;;;21.63;64.46
80678;BME280;70042;52.494;5.502;2023-08-30T00:32:31;100941.88;;;21.63;64.48
80678;BME280;70042;52.494;5.502;2023-08-30T00:34:56;100934.09;;;21.58;64.62
80678;BME280;70042;52.494;5.502;2023-08-30T00:37:22;100938.53;;;21.58;64.51
80678;BME280;70042;52.494;5.502;2023-08-30T00:39:47;100937.66;;;21.57;64.85
80678;BME280;70042;52.494;5.502;2023-08-30T00:42:12;100935.94;;;21.56;64.78
80678;BME280;70042;52.494;5.502;2023-08-30T00:44:38;100930.69;;;21.55;64.81
80678;BME280;70042;52.494;5.502;2023-08-30T00:47:03;100934.22;;;21.55;64.68
80678;BME280;70042;52.494;5.502;2023-08-30T00:49:32;100935.06;;;21.56;64.73
80678;BME280;70042;52.494;5.502;2023-08-30T00:51:59;100935.06;;;21.56;64.79
80678;BME280;70042;52.494;5.502;2023-08-30T00:54:26;100928.16;;;21.52;64.81
80678;BME280;70042;52.494;5.502;2023-08-30T00:56:52;100926.38;;;21.52;64.54
80678;BME280;70042;52.494;5.502;2023-08-30T00:59:18;100918.25;;;21.55;64.65
80678;BME280;70042;52.494;5.502;2023-08-30T01:01:44;100924.38;;;21.57;64.53
80678;BME280;70042;52.494;5.502;2023-08-30T01:04:09;100919.97;;;21.56;64.52
80678;BME280;70042;52.494;5.502;2023-08-30T01:06:35;100916.41;;;21.57;64.57
80678;BME280;70042;52.494;5.502;2023-08-30T01:09:02;100918.13;;;21.58;64.58
80678;BME280;70042;52.494;5.502;2023-08-30T01:12:22;100910.22;;;21.57;64.50
80678;BME280;70042;52.494;5.502;2023-08-30T01:14:24;100914.78;;;21.53;64.51
80678;BME280;70042;52.494;5.502;2023-08-30T01:16:52;100913.19;;;21.49;64.52
80678;BME280;70042;52.494;5.502;2023-08-30T01:19:26;100911.44;;;21.48;64.51
80678;BME280;70042;52.494;5.502;2023-08-30T01:24:40;100913.25;;;21.48;64.52
80678;BME280;70042;52.494;5.502;2023-08-30T01:27:11;100908.00;;;21.46;64.65
80678;BME280;70042;52.494;5.502;2023-08-30T01:29:43;100905.44;;;21.43;64.72
80678;BME280;70042;52.494;5.502;2023-08-30T01:32:08;100910.75;;;21.43;64.51
80678;BME280;70042;52.494;5.502;2023-08-30T01:34:36;100908.97;;;21.44;64.68
80678;BME280;70042;52.494;5.502;2023-08-30T01:37:04;100910.66;;;21.46;64.63
80678;BME280;70042;52.494;5.502;2023-08-30T01:39:32;100915.84;;;21.49;64.47
80678;BME280;70042;52.494;5.502;2023-08-30T01:41:57;100904.28;;;21.50;64.57
80678;BME280;70042;52.494;5.502;2023-08-30T01:44:30;100898.09;;;21.50;64.47
80678;BME280;70042;52.494;5.502;2023-08-30T01:46:56;100898.03;;;21.51;64.29
80678;BME280;70042;52.494;5.502;2023-08-30T01:49:23;100890.06;;;21.51;64.24
80678;BME280;70042;52.494;5.502;2023-08-30T01:51:50;100896.41;;;21.47;64.55
80678;BME280;70042;52.494;5.502;2023-08-30T01:54:18;100890.34;;;21.44;64.63
80678;BME280;70042;52.494;5.502;2023-08-30T01:56:45;100884.25;;;21.42;64.57
80678;BME280;70042;52.494;5.502;2023-08-30T01:59:11;100888.69;;;21.41;64.57
80678;BME280;70042;52.494;5.502;2023-08-30T02:01:36;100880.78;;;21.40;64.67
80678;BME280;70042;52.494;5.502;2023-08-30T02:04:02;100875.53;;;21.38;64.81
80678;BME280;70042;52.494;5.502;2023-08-30T02:06:36;100881.75;;;21.37;64.79
80678;BME280;70042;52.494;5.502;2023-08-30T02:09:10;100876.44;;;21.37;64.76
80678;BME280;70042;52.494;5.502;2023-08-30T02:11:39;100873.78;;;21.37;64.61
80678;BME280;70042;52.494;5.502;2023-08-30T02:14:10;100874.72;;;21.36;64.54
80678;BME280;70042;52.494;5.502;2023-08-30T02:16:37;100873.00;;;21.35;64.66
80678;BME280;70042;52.494;5.502;2023-08-30T02:19:03;100875.53;;;21.38;64.50
80678;BME280;70042;52.494;5.502;2023-08-30T02:21:30;100868.41;;;21.39;65.07
80678;BME280;70042;52.494;5.502;2023-08-30T02:23:55;100863.03;;;21.40;64.40
80678;BME280;70042;52.494;5.502;2023-08-30T02:26:21;100870.03;;;21.43;64.47
80678;BME280;70042;52.494;5.502;2023-08-30T02:28:46;100869.97;;;21.44;64.42
80678;BME280;70042;52.494;5.502;2023-08-30T02:31:12;100870.09;;;21.41;64.60
80678;BME280;70042;52.494;5.502;2023-08-30T02:33:37;100864.91;;;21.38;64.36
80678;BME280;70042;52.494;5.502;2023-08-30T02:36:04;100859.66;;;21.37;64.62
80678;BME280;70042;52.494;5.502;2023-08-30T02:38:29;100857.03;;;21.35;64.77
80678;BME280;70042;52.494;5.502;2023-08-30T02:40:55;100851.84;;;21.32;64.80
80678;BME280;70042;52.494;5.502;2023-08-30T02:43:20;100844.78;;;21.31;64.84
80678;BME280;70042;52.494;5.502;2023-08-30T02:45:45;100843.09;;;21.30;64.80
80678;BME280;70042;52.494;5.502;2023-08-30T02:48:11;100850.09;;;21.31;64.74
80678;BME280;70042;52.494;5.502;2023-08-30T02:50:36;100832.47;;;21.30;64.63
80678;BME280;70042;52.494;5.502;2023-08-30T02:53:01;100836.03;;;21.29;64.78
80678;BME280;70042;52.494;5.502;2023-08-30T02:55:27;100826.28;;;21.30;64.74
80678;BME280;70042;52.494;5.502;2023-08-30T02:57:52;100830.72;;;21.29;64.89
80678;BME280;70042;52.494;5.502;2023-08-30T03:00:18;100830.72;;;21.29;64.76
80678;BME280;70042;52.494;5.502;2023-08-30T03:02:43;100816.50;;;21.30;64.71
80678;BME280;70042;52.494;5.502;2023-08-30T03:05:09;100813.91;;;21.28;64.69
80678;BME280;70042;52.494;5.502;2023-08-30T03:07:35;100816.38;;;21.33;64.50
80678;BME280;70042;52.494;5.502;2023-08-30T03:10:00;100818.09;;;21.34;64.54
80678;BME280;70042;52.494;5.502;2023-08-30T03:12:25;100810.25;;;21.31;64.58
80678;BME280;70042;52.494;5.502;2023-08-30T03:14:51;100808.59;;;21.28;64.85
80678;BME280;70042;52.494;5.502;2023-08-30T03:17:16;100808.66;;;21.27;64.67
80678;BME280;70042;52.494;5.502;2023-08-30T03:19:42;100810.44;;;21.26;64.68
80678;BME280;70042;52.494;5.502;2023-08-30T03:22:07;100800.72;;;21.25;64.79
80678;BME280;70042;52.494;5.502;2023-08-30T03:24:32;100802.53;;;21.25;64.86
80678;BME280;70042;52.494;5.502;2023-08-30T03:26:58;100807.84;;;21.25;64.72
80678;BME280;70042;52.494;5.502;2023-08-30T03:29:25;100800.81;;;21.24;64.74
80678;BME280;70042;52.494;5.502;2023-08-30T03:31:50;100795.50;;;21.24;64.87
80678;BME280;70042;52.494;5.502;2023-08-30T03:34:16;100797.22;;;21.25;64.64
80678;BME280;70042;52.494;5.502;2023-08-30T03:36:41;100800.72;;;21.25;64.65
80678;BME280;70042;52.494;5.502;2023-08-30T03:39:09;100795.50;;;21.24;64.70
80678;BME280;70042;52.494;5.502;2023-08-30T03:41:35;100796.34;;;21.24;64.73
80678;BME280;70042;52.494;5.502;2023-08-30T03:44:00;100789.22;;;21.25;64.76
80678;BME280;70042;52.494;5.502;2023-08-30T03:46:25;100791.03;;;21.24;64.69
80678;BME280;70042;52.494;5.502;2023-08-30T03:48:51;100785.78;;;21.23;64.77
80678;BME280;70042;52.494;5.502;2023-08-30T03:51:17;100779.69;;;21.21;64.76
80678;BME280;70042;52.494;5.502;2023-08-30T03:53:42;100777.03;;;21.21;64.85
80678;BME280;70042;52.494;5.502;2023-08-30T03:56:08;100775.28;;;21.20;65.12
80678;BME280;70042;52.494;5.502;2023-08-30T03:58:33;100764.66;;;21.20;64.88
80678;BME280;70042;52.494;5.502;2023-08-30T04:00:59;100762.00;;;21.20;65.05
80678;BME280;70042;52.494;5.502;2023-08-30T04:03:24;100762.88;;;21.20;64.89
80678;BME280;70042;52.494;5.502;2023-08-30T04:05:55;100756.69;;;21.20;64.98
80678;BME280;70042;52.494;5.502;2023-08-30T04:08:20;100754.91;;;21.20;64.84
80678;BME280;70042;52.494;5.502;2023-08-30T04:10:46;100751.38;;;21.20;64.80
80678;BME280;70042;52.494;5.502;2023-08-30T04:13:13;100762.00;;;21.20;64.83
80678;BME280;70042;52.494;5.502;2023-08-30T04:15:40;100751.38;;;21.20;64.80
80678;BME280;70042;52.494;5.502;2023-08-30T04:18:06;100749.63;;;21.19;64.74
80678;BME280;70042;52.494;5.502;2023-08-30T04:20:32;100756.69;;;21.20;64.72
80678;BME280;70042;52.494;5.502;2023-08-30T04:22:59;100747.88;;;21.18;64.82
80678;BME280;70042;52.494;5.502;2023-08-30T04:25:27;100753.19;;;21.18;64.77
80678;BME280;70042;52.494;5.502;2023-08-30T04:27:53;100747.88;;;21.18;64.70
80678;BME280;70042;52.494;5.502;2023-08-30T04:30:18;100755.94;;;21.16;64.85
80678;BME280;70042;52.494;5.502;2023-08-30T04:32:44;100760.38;;;21.16;64.80
80678;BME280;70042;52.494;5.502;2023-08-30T04:35:09;100754.19;;;21.15;64.85
80678;BME280;70042;52.494;5.502;2023-08-30T04:37:35;100755.97;;;21.15;64.75
80678;BME280;70042;52.494;5.502;2023-08-30T04:40:01;100750.66;;;21.15;64.53
80678;BME280;70042;52.494;5.502;2023-08-30T04:42:28;100747.09;;;21.16;64.63
80678;BME280;70042;52.494;5.502;2023-08-30T04:44:54;100750.63;;;21.16;64.63
80678;BME280;70042;52.494;5.502;2023-08-30T04:47:21;100740.03;;;21.15;64.80
80678;BME280;70042;52.494;5.502;2023-08-30T04:49:53;100739.13;;;21.16;64.89
80678;BME280;70042;52.494;5.502;2023-08-30T04:52:19;100740.88;;;21.17;64.75
80678;BME280;70042;52.494;5.502;2023-08-30T04:54:44;100742.66;;;21.16;64.69
80678;BME280;70042;52.494;5.502;2023-08-30T04:57:11;100741.88;;;21.14;64.73
80678;BME280;70042;52.494;5.502;2023-08-30T04:59:40;100740.03;;;21.15;64.75
80678;BME280;70042;52.494;5.502;2023-08-30T05:02:05;100742.69;;;21.15;64.66
80678;BME280;70042;52.494;5.502;2023-08-30T05:04:30;100739.22;;;21.14;64.59
80678;BME280;70042;52.494;5.502;2023-08-30T05:06:56;100730.38;;;21.14;64.71
80678;BME280;70042;52.494;5.502;2023-08-30T05:09:21;100731.25;;;21.14;64.61
80678;BME280;70042;52.494;5.502;2023-08-30T05:11:52;100736.69;;;21.11;64.62
80678;BME280;70042;52.494;5.502;2023-08-30T05:14:19;100733.94;;;21.13;64.66
80678;BME280;70042;52.494;5.502;2023-08-30T05:16:44;100735.81;;;21.11;64.78
80678;BME280;70042;52.494;5.502;2023-08-30T05:19:10;100732.19;;;21.12;64.68
80678;BME280;70042;52.494;5.502;2023-08-30T05:21:35;100731.38;;;21.11;64.97
80678;BME280;70042;52.494;5.502;2023-08-30T05:24:01;100731.38;;;21.11;64.65
80678;BME280;70042;52.494;5.502;2023-08-30T05:26:27;100719.88;;;21.11;64.63
80678;BME280;70042;52.494;5.502;2023-08-30T05:28:52;100714.56;;;21.11;64.72
80678;BME280;70042;52.494;5.502;2023-08-30T05:31:17;100712.81;;;21.10;64.51
80678;BME280;70042;52.494;5.502;2023-08-30T05:33:43;100713.69;;;21.10;64.65
80678;BME280;70042;52.494;5.502;2023-08-30T05:36:08;100718.13;;;21.10;64.77
80678;BME280;70042;52.494;5.502;2023-08-30T05:38:34;100716.38;;;21.09;64.63
80678;BME280;70042;52.494;5.502;2023-08-30T05:40:59;100716.38;;;21.09;64.80
80678;BME280;70042;52.494;5.502;2023-08-30T05:43:25;100707.50;;;21.10;64.70
80678;BME280;70042;52.494;5.502;2023-08-30T05:45:50;100703.97;;;21.09;64.73
80678;BME280;70042;52.494;5.502;2023-08-30T05:48:15;100706.63;;;21.09;64.63
80678;BME280;70042;52.494;5.502;2023-08-30T05:50:41;100709.34;;;21.08;64.36
80678;BME280;70042;52.494;5.502;2023-08-30T05:53:07;100710.25;;;21.07;64.80
80678;BME280;70042;52.494;5.502;2023-08-30T05:55:32;100704.03;;;21.08;64.79
80678;BME280;70042;52.494;5.502;2023-08-30T05:57:58;100709.38;;;21.06;64.57
80678;BME280;70042;52.494;5.502;2023-08-30T06:00:23;100714.66;;;21.08;64.57
80678;BME280;70042;52.494;5.502;2023-08-30T06:02:51;100713.78;;;21.07;64.93
80678;BME280;70042;52.494;5.502;2023-08-30T06:05:17;100703.16;;;21.07;64.57
80678;BME280;70042;52.494;5.502;2023-08-30T06:07:43;100695.13;;;21.09;64.71
80678;BME280;70042;52.494;5.502;2023-08-30T06:10:09;100692.47;;;21.09;64.66
80678;BME280;70042;52.494;5.502;2023-08-30T06:12:34;100695.13;;;21.09;64.76
80678;BME280;70042;52.494;5.502;2023-08-30T06:14:59;100692.47;;;21.09;64.66
80678;BME280;70042;52.494;5.502;2023-08-30T06:17:25;100688.09;;;21.08;64.77
80678;BME280;70042;52.494;5.502;2023-08-30T06:19:50;100682.78;;;21.08;64.72
80678;BME280;70042;52.494;5.502;2023-08-30T06:22:16;100684.59;;;21.06;64.76
80678;BME280;70042;52.494;5.502;2023-08-30T06:24:41;100679.28;;;21.06;64.76
80678;BME280;70042;52.494;5.502;2023-08-30T06:27:07;100674.94;;;21.05;64.72
80678;BME280;70042;52.494;5.502;2023-08-30T06:29:32;100678.41;;;21.05;64.68
80678;BME280;70042;52.494;5.502;2023-08-30T06:31:58;100673.06;;;21.07;64.76
80678;BME280;70042;52.494;5.502;2023-08-30T06:34:24;100666.97;;;21.05;64.66
80678;BME280;70042;52.494;5.502;2023-08-30T06:36:49;100663.34;;;21.06;64.89
80678;BME280;70042;52.494;5.502;2023-08-30T06:39:15;100661.66;;;21.05;64.79
80678;BME280;70042;52.494;5.502;2023-08-30T06:41:40;100658.03;;;21.06;64.70
80678;BME280;70042;52.494;5.502;2023-08-30T06:44:05;100666.00;;;21.06;64.80
80678;BME280;70042;52.494;5.502;2023-08-30T06:46:31;100660.69;;;21.06;64.65
80678;BME280;70042;52.494;5.502;2023-08-30T06:48:56;100662.47;;;21.05;64.55
80678;BME280;70042;52.494;5.502;2023-08-30T06:51:22;100666.97;;;21.05;64.58
80678;BME280;70042;52.494;5.502;2023-08-30T06:53:47;100660.78;;;21.04;64.73
80678;BME280;70042;52.494;5.502;2023-08-30T06:56:14;100669.63;;;21.05;64.80
80678;BME280;70042;52.494;5.502;2023-08-30T06:58:40;100669.66;;;21.03;64.76
80678;BME280;70042;52.494;5.502;2023-08-30T07:01:05;100668.78;;;21.03;64.70
80678;BME280;70042;52.494;5.502;2023-08-30T07:03:31;100667.09;;;21.02;64.74
80678;BME280;70042;52.494;5.502;2023-08-30T07:05:56;100669.75;;;21.02;64.63
80678;BME280;70042;52.494;5.502;2023-08-30T07:08:21;100664.44;;;21.02;64.76
80678;BME280;70042;52.494;5.502;2023-08-30T07:10:47;100669.75;;;21.02;64.47
80678;BME280;70042;52.494;5.502;2023-08-30T07:13:12;100668.78;;;21.03;64.59
80678;BME280;70042;52.494;5.502;2023-08-30T07:15:41;100667.88;;;21.04;64.72
80678;BME280;70042;52.494;5.502;2023-08-30T07:18:08;100659.91;;;21.04;64.66
80678;BME280;70042;52.494;5.502;2023-08-30T07:20:34;100659.94;;;21.02;64.82
80678;BME280;70042;52.494;5.502;2023-08-30T07:23:02;100659.03;;;21.03;64.45
80678;BME280;70042;52.494;5.502;2023-08-30T07:25:29;100650.19;;;21.03;64.58
80678;BME280;70042;52.494;5.502;2023-08-30T07:27:56;100652.84;;;21.03;64.59
80678;BME280;70042;52.494;5.502;2023-08-30T07:30:21;100653.81;;;21.02;64.63
80678;BME280;70042;52.494;5.502;2023-08-30T07:32:46;100645.84;;;21.02;64.95
80678;BME280;70042;52.494;5.502;2023-08-30T07:35:12;100655.50;;;21.03;65.09
80678;BME280;70042;52.494;5.502;2023-08-30T07:37:38;100646.69;;;21.02;64.84
80678;BME280;70042;52.494;5.502;2023-08-30T07:40:03;100648.41;;;21.03;64.63
80678;BME280;70042;52.494;5.502;2023-08-30T07:42:30;100644.88;;;21.03;64.57
80678;BME280;70042;52.494;5.502;2023-08-30T07:44:55;100633.38;;;21.02;64.56
80678;BME280;70042;52.494;5.502;2023-08-30T07:47:21;100633.47;;;21.01;64.71
80678;BME280;70042;52.494;5.502;2023-08-30T07:49:46;100632.56;;;21.02;64.73
80678;BME280;70042;52.494;5.502;2023-08-30T07:52:11;100637.88;;;21.02;64.77
80678;BME280;70042;52.494;5.502;2023-08-30T07:54:39;100636.91;;;21.03;64.70
80678;BME280;70042;52.494;5.502;2023-08-30T07:57:04;100632.56;;;21.02;64.91
80678;BME280;70042;52.494;5.502;2023-08-30T07:59:33;100628.94;;;21.03;64.71
80678;BME280;70042;52.494;5.502;2023-08-30T08:01:58;100633.34;;;21.04;64.72
80678;BME280;70042;52.494;5.502;2023-08-30T08:04:24;100620.06;;;21.04;64.68
80678;BME280;70042;52.494;5.502;2023-08-30T08:06:49;100619.16;;;21.05;64.79
80678;BME280;70042;52.494;5.502;2023-08-30T08:09:15;100631.47;;;21.06;64.64
80678;BME280;70042;52.494;5.502;2023-08-30T08:11:41;100627.91;;;21.07;64.73
80678;BME280;70042;52.494;5.502;2023-08-30T08:14:10;100626.16;;;21.06;64.63
80678;BME280;70042;52.494;5.502;2023-08-30T08:16:36;100612.97;;;21.04;64.41
80678;BME280;70042;52.494;5.502;2023-08-30T08:19:02;100618.19;;;21.06;64.58
80678;BME280;70042;52.494;5.502;2023-08-30T08:21:28;100612.09;;;21.04;64.61
80678;BME280;70042;52.494;5.502;2023-08-30T08:23:53;100609.47;;;21.02;64.83
80678;BME280;70042;52.494;5.502;2023-08-30T08:26:19;100609.47;;;21.02;64.81
80678;BME280;70042;52.494;5.502;2023-08-30T08:28:44;100613.00;;;21.03;64.68
80678;BME280;70042;52.494;5.502;2023-08-30T08:31:09;100607.69;;;21.03;64.79
80678;BME280;70042;52.494;5.502;2023-08-30T08:33:36;100610.34;;;21.03;64.72
80678;BME280;70042;52.494;5.502;2023-08-30T08:36:01;100605.91;;;21.03;64.66
80678;BME280;70042;52.494;5.502;2023-08-30T08:38:27;100606.78;;;21.04;64.82
80678;BME280;70042;52.494;5.502;2023-08-30T08:41:02;100608.50;;;21.05;64.76
80678;BME280;70042;52.494;5.502;2023-08-30T08:43:29;100610.22;;;21.06;64.76
80678;BME280;70042;52.494;5.502;2023-08-30T08:45:59;100604.91;;;21.06;64.61
80678;BME280;70042;52.494;5.502;2023-08-30T08:48:29;100601.34;;;21.07;64.64
80678;BME280;70042;52.494;5.502;2023-08-30T08:50:57;100603.06;;;21.08;64.65
80678;BME280;70042;52.494;5.502;2023-08-30T08:53:22;100599.50;;;21.09;64.60
80678;BME280;70042;52.494;5.502;2023-08-30T08:55:48;100597.75;;;21.08;64.51
80678;BME280;70042;52.494;5.502;2023-08-30T08:58:15;100597.75;;;21.08;64.65
80678;BME280;70042;52.494;5.502;2023-08-30T09:00:44;100597.75;;;21.08;64.71
80678;BME280;70042;52.494;5.502;2023-08-30T09:03:12;100595.09;;;21.08;64.51
80678;BME280;70042;52.494;5.502;2023-08-30T09:05:38;100588.88;;;21.09;64.47
80678;BME280;70042;52.494;5.502;2023-08-30T09:08:05;100585.28;;;21.10;64.51
80678;BME280;70042;52.494;5.502;2023-08-30T09:10:34;100592.34;;;21.11;64.52
80678;BME280;70042;52.494;5.502;2023-08-30T09:13:00;100591.34;;;21.13;64.81
80678;BME280;70042;52.494;5.502;2023-08-30T09:15:32;100590.28;;;21.17;64.79
80678;BME280;70042;52.494;5.502;2023-08-30T09:17:58;100578.44;;;21.24;64.60
80678;BME280;70042;52.494;5.502;2023-08-30T09:20:23;100587.75;;;21.35;64.16
80678;BME280;70042;52.494;5.502;2023-08-30T09:22:48;100580.22;;;21.44;63.89
80678;BME280;70042;52.494;5.502;2023-08-30T09:25:26;100587.00;;;21.51;63.64
80678;BME280;70042;52.494;5.502;2023-08-30T09:27:59;100583.28;;;21.55;63.39
80678;BME280;70042;52.494;5.502;2023-08-30T09:30:25;100582.31;;;21.56;63.35
80678;BME280;70042;52.494;5.502;2023-08-30T09:32:50;100586.84;;;21.54;63.51
80678;BME280;70042;52.494;5.502;2023-08-30T09:35:16;100580.66;;;21.54;63.46
80678;BME280;70042;52.494;5.502;2023-08-30T09:37:44;100583.41;;;21.52;63.35
80678;BME280;70042;52.494;5.502;2023-08-30T09:40:10;100578.25;;;21.49;63.43
80678;BME280;70042;52.494;5.502;2023-08-30T09:42:40;100570.44;;;21.45;63.35
80678;BME280;70042;52.494;5.502;2023-08-30T09:45:21;100573.31;;;21.40;63.31
80678;BME280;70042;52.494;5.502;2023-08-30T09:47:50;100567.28;;;21.37;63.69
80678;BME280;70042;52.494;5.502;2023-08-30T09:50:18;100575.31;;;21.35;63.75
80678;BME280;70042;52.494;5.502;2023-08-30T09:52:46;100570.00;;;21.35;63.68
80678;BME280;70042;52.494;5.502;2023-08-30T09:55:13;100570.91;;;21.34;63.77
80678;BME280;70042;52.494;5.502;2023-08-30T09:57:39;100561.25;;;21.33;63.79
80678;BME280;70042;52.494;5.502;2023-08-30T10:00:08;100564.81;;;21.32;63.80
80678;BME280;70042;52.494;5.502;2023-08-30T10:02:34;100557.78;;;21.31;63.92
80678;BME280;70042;52.494;5.502;2023-08-30T10:05:00;100555.13;;;21.31;63.79
80678;BME280;70042;52.494;5.502;2023-08-30T10:07:25;100552.53;;;21.30;63.95
80678;BME280;70042;52.494;5.502;2023-08-30T10:09:51;100550.91;;;21.27;63.76
80678;BME280;70042;52.494;5.502;2023-08-30T10:12:20;100554.47;;;21.26;63.84
80678;BME280;70042;52.494;5.502;2023-08-30T10:14:47;100551.81;;;21.26;64.05
80678;BME280;70042;52.494;5.502;2023-08-30T10:17:14;100543.84;;;21.26;63.91
80678;BME280;70042;52.494;5.502;2023-08-30T10:19:43;100547.41;;;21.25;63.81
80678;BME280;70042;52.494;5.502;2023-08-30T10:22:10;100543.84;;;21.26;63.76
80678;BME280;70042;52.494;5.502;2023-08-30T10:27:13;100534.00;;;21.28;63.96
80678;BME280;70042;52.494;5.502;2023-08-30T10:29:41;100541.03;;;21.29;63.78
80678;BME280;70042;52.494;5.502;2023-08-30T10:32:08;100541.91;;;21.30;63.74
80678;BME280;70042;52.494;5.502;2023-08-30T10:34:35;100537.47;;;21.30;63.85
80678;BME280;70042;52.494;5.502;2023-08-30T10:37:07;100542.78;;;21.30;63.64
80678;BME280;70042;52.494;5.502;2023-08-30T10:39:40;100544.47;;;21.31;63.87
80678;BME280;70042;52.494;5.502;2023-08-30T10:42:11;100536.38;;;21.34;64.22
80678;BME280;70042;52.494;5.502;2023-08-30T10:44:50;100532.78;;;21.35;64.02
80678;BME280;70042;52.494;5.502;2023-08-30T10:47:22;100535.41;;;21.37;64.06
80678;BME280;70042;52.494;5.502;2023-08-30T10:49:48;100526.41;;;21.39;64.30
80678;BME280;70042;52.494;5.502;2023-08-30T10:52:14;100536.09;;;21.40;64.08
80678;BME280;70042;52.494;5.502;2023-08-30T10:54:40;100520.97;;;21.42;63.81
80678;BME280;70042;52.494;5.502;2023-08-30T10:57:15;100527.06;;;21.44;63.68
80678;BME280;70042;52.494;5.502;2023-08-30T11:02:32;100521.59;;;21.47;63.89
80678;BME280;70042;52.494;5.502;2023-08-30T11:04:59;100531.38;;;21.47;64.00
80678;BME280;70042;52.494;5.502;2023-08-30T11:07:25;100535.72;;;21.49;63.92
80678;BME280;70042;52.494;5.502;2023-08-30T11:09:51;100521.47;;;21.50;63.92
80678;BME280;70042;52.494;5.502;2023-08-30T11:12:18;100521.31;;;21.53;64.20
80678;BME280;70042;52.494;5.502;2023-08-30T11:14:43;100526.50;;;21.56;64.20
80678;BME280;70042;52.494;5.502;2023-08-30T11:17:12;100537.94;;;21.58;64.17
80678;BME280;70042;52.494;5.502;2023-08-30T11:19:37;100533.41;;;21.60;64.33
80678;BME280;70042;52.494;5.502;2023-08-30T11:22:03;100539.50;;;21.62;63.97
80678;BME280;70042;52.494;5.502;2023-08-30T11:24:28;100549.16;;;21.65;63.77
80678;BME280;70042;52.494;5.502;2023-08-30T11:26:55;100540.09;;;21.69;63.74
80678;BME280;70042;52.494;5.502;2023-08-30T11:29:21;100542.59;;;21.72;63.76
80678;BME280;70042;52.494;5.502;2023-08-30T11:31:46;100546.06;;;21.74;63.76
80678;BME280;70042;52.494;5.502;2023-08-30T11:34:12;100552.13;;;21.77;63.73
80678;BME280;70042;52.494;5.502;2023-08-30T11:36:38;100546.66;;;21.80;63.65
80678;BME280;70042;52.494;5.502;2023-08-30T11:39:04;100552.69;;;21.84;63.63
80678;BME280;70042;52.494;5.502;2023-08-30T11:41:31;100551.69;;;21.87;63.75
80678;BME280;70042;52.494;5.502;2023-08-30T11:43:58;100547.16;;;21.89;63.37
80678;BME280;70042;52.494;5.502;2023-08-30T11:46:25;100539.91;;;21.92;63.40
80678;BME280;70042;52.494;5.502;2023-08-30T11:48:51;100551.41;;;21.93;63.46
80678;BME280;70042;52.494;5.502;2023-08-30T11:51:18;100555.66;;;21.97;63.56
80678;BME280;70042;52.494;5.502;2023-08-30T11:53:45;100554.72;;;21.98;63.32
80678;BME280;70042;52.494;5.502;2023-08-30T11:56:11;100556.34;;;22.00;63.19
80678;BME280;70042;52.494;5.502;2023-08-30T11:58:38;100555.38;;;22.03;63.35
80678;BME280;70042;52.494;5.502;2023-08-30T12:01:04;100557.88;;;22.06;63.41
80678;BME280;70042;52.494;5.502;2023-08-30T12:03:32;100564.03;;;22.06;63.48
80678;BME280;70042;52.494;5.502;2023-08-30T12:05:59;100559.44;;;22.10;63.47
80678;BME280;70042;52.494;5.502;2023-08-30T12:08:34;100565.72;;;22.09;63.71
80678;BME280;70042;52.494;5.502;2023-08-30T12:11:00;100570.91;;;22.12;63.39
80678;BME280;70042;52.494;5.502;2023-08-30T12:13:28;100568.25;;;22.12;63.44
80678;BME280;70042;52.494;5.502;2023-08-30T12:15:55;100569.09;;;22.12;63.46
80678;BME280;70042;52.494;5.502;2023-08-30T12:18:24;100569.94;;;22.13;63.32
80678;BME280;70042;52.494;5.502;2023-08-30T12:20:58;100571.75;;;22.12;63.73
80678;BME280;70042;52.494;5.502;2023-08-30T12:23:26;100570.91;;;22.12;63.62
80678;BME280;70042;52.494;5.502;2023-08-30T12:26:06;100561.19;;;22.11;63.96
80678;BME280;70042;52.494;5.502;2023-08-30T12:28:34;100577.00;;;22.14;64.04
80678;BME280;70042;52.494;5.502;2023-08-30T12:31:00;100577.00;;;22.14;63.68
80678;BME280;70042;52.494;5.502;2023-08-30T12:33:26;100576.84;;;22.17;63.82
80678;BME280;70042;52.494;5.502;2023-08-30T12:35:53;100571.47;;;22.18;64.43
80678;BME280;70042;52.494;5.502;2023-08-30T12:38:19;100571.38;;;22.20;63.80
80678;BME280;70042;52.494;5.502;2023-08-30T12:40:48;100572.16;;;22.22;64.05
80678;BME280;70042;52.494;5.502;2023-08-30T12:43:14;100582.81;;;22.22;64.04
80678;BME280;70042;52.494;5.502;2023-08-30T12:45:40;100583.75;;;22.21;63.67
80678;BME280;70042;52.494;5.502;2023-08-30T12:48:07;100588.28;;;22.19;63.98
80678;BME280;70042;52.494;5.502;2023-08-30T12:50:32;100589.22;;;22.18;63.46
80678;BME280;70042;52.494;5.502;2023-08-30T12:52:57;100597.28;;;22.16;63.38
80678;BME280;70042;52.494;5.502;2023-08-30T12:55:23;100588.41;;;22.16;63.61